sensor_id;sensor_type;location;lat;lon;timestamp;P1;durP1;ratioP1;P2;durP2;ratioP2
17193;SDS011;8713;48.388;10.928;2023-04-03T07:05:59;1.92;;;1.50;;
17193;SDS011;8713;48.388;10.928;2023-04-03T07:07:08;4.63;;;2.00;;
17193;SDS011;8713;48.388;10.928;2023-04-03T07:08:17;3.05;;;1.70;;
17193;SDS011;8713;48.388;10.928;2023-04-03T07:09:27;5.20;;;2.17;;
17193;SDS011;8713;48.388;10.928;2023-04-03T07:10:37;2.90;;;1.85;;
17193;SDS011;8713;48.388;10.928;2023-04-03T07:11:47;4.13;;;1.92;;
17193;SDS011;8713;48.388;10.928;2023-04-03T07:12:56;3.67;;;1.80;;
17193;SDS011;8713;48.388;10.928;2023-04-03T07:14:06;3.55;;;1.70;;
17193;SDS011;8713;48.388;10.928;2023-04-03T07:15:16;2.47;;;1.60;;
17193;SDS011;8713;48.388;10.928;2023-04-03T07:16:25;4.28;;;1.65;;
17193;SDS011;8713;48.388;10.928;2023-04-03T07:17:35;4.38;;;1.60;;
17193;SDS011;8713;48.388;10.928;2023-04-03T07:18:45;2.75;;;1.70;;
17193;SDS011;8713;48.388;10.928;2023-04-03T07:19:55;3.67;;;1.85;;
17193;SDS011;8713;48.388;10.928;2023-04-03T07:21:04;2.35;;;1.60;;
17193;SDS011;8713;48.388;10.928;2023-04-03T07:22:14;3.70;;;1.65;;
17193;SDS011;8713;48.388;10.928;2023-04-03T07:23:23;4.00;;;1.70;;
17193;SDS011;8713;48.388;10.928;2023-04-03T07:24:33;3.03;;;2.20;;
17193;SDS011;8713;48.388;10.928;2023-04-03T07:25:43;2.85;;;1.80;;
17193;SDS011;8713;48.388;10.928;2023-04-03T07:26:56;2.33;;;1.65;;
17193;SDS011;8713;48.388;10.928;2023-04-03T07:28:06;4.40;;;1.98;;
17193;SDS011;8713;48.388;10.928;2023-04-03T07:29:16;2.55;;;1.40;;
17193;SDS011;8713;48.388;10.928;2023-04-03T07:30:26;2.78;;;1.55;;
17193;SDS011;8713;48.388;10.928;2023-04-03T07:31:35;3.10;;;1.73;;
17193;SDS011;8713;48.388;10.928;2023-04-03T07:32:44;3.63;;;1.98;;
17193;SDS011;8713;48.388;10.928;2023-04-03T07:33:54;2.85;;;1.58;;
17193;SDS011;8713;48.388;10.928;2023-04-03T07:35:04;2.97;;;1.45;;
17193;SDS011;8713;48.388;10.928;2023-04-03T07:36:17;2.50;;;1.48;;
17193;SDS011;8713;48.388;10.928;2023-04-03T07:37:28;3.83;;;2.00;;
17193;SDS011;8713;48.388;10.928;2023-04-03T07:38:38;3.63;;;1.70;;
17193;SDS011;8713;48.388;10.928;2023-04-03T07:39:48;4.38;;;1.73;;
17193;SDS011;8713;48.388;10.928;2023-04-03T07:40:58;3.28;;;1.63;;
17193;SDS011;8713;48.388;10.928;2023-04-03T07:42:07;6.93;;;1.70;;
17193;SDS011;8713;48.388;10.928;2023-04-03T07:43:17;3.63;;;2.20;;
17193;SDS011;8713;48.388;10.928;2023-04-03T07:44:28;3.75;;;1.52;;
17193;SDS011;8713;48.388;10.928;2023-04-03T07:45:38;2.80;;;1.50;;
17193;SDS011;8713;48.388;10.928;2023-04-03T07:46:47;2.83;;;1.58;;
17193;SDS011;8713;48.388;10.928;2023-04-03T07:47:57;3.42;;;1.80;;
17193;SDS011;8713;48.388;10.928;2023-04-03T07:49:07;2.97;;;1.70;;
17193;SDS011;8713;48.388;10.928;2023-04-03T07:50:16;4.03;;;1.98;;
17193;SDS011;8713;48.388;10.928;2023-04-03T07:51:26;5.72;;;1.90;;
17193;SDS011;8713;48.388;10.928;2023-04-03T07:52:56;3.83;;;1.75;;
17193;SDS011;8713;48.388;10.928;2023-04-03T07:54:10;3.03;;;2.00;;
17193;SDS011;8713;48.388;10.928;2023-04-03T07:55:38;3.50;;;2.00;;
17193;SDS011;8713;48.388;10.928;2023-04-03T07:56:54;3.75;;;1.75;;
17193;SDS011;8713;48.388;10.928;2023-04-03T07:58:04;4.13;;;1.98;;
17193;SDS011;8713;48.388;10.928;2023-04-03T07:59:13;3.55;;;1.88;;
17193;SDS011;8713;48.388;10.928;2023-04-03T08:00:22;3.30;;;1.70;;
17193;SDS011;8713;48.388;10.928;2023-04-03T08:01:32;2.40;;;1.60;;
17193;SDS011;8713;48.388;10.928;2023-04-03T08:02:45;3.83;;;1.80;;
17193;SDS011;8713;48.388;10.928;2023-04-03T08:03:59;4.03;;;1.88;;
17193;SDS011;8713;48.388;10.928;2023-04-03T08:05:08;4.13;;;1.60;;
17193;SDS011;8713;48.388;10.928;2023-04-03T08:06:18;3.35;;;1.70;;
17193;SDS011;8713;48.388;10.928;2023-04-03T08:07:27;4.03;;;1.85;;
17193;SDS011;8713;48.388;10.928;2023-04-03T08:08:37;2.85;;;1.60;;
17193;SDS011;8713;48.388;10.928;2023-04-03T08:09:46;3.50;;;1.83;;
17193;SDS011;8713;48.388;10.928;2023-04-03T08:10:57;4.03;;;1.80;;
17193;SDS011;8713;48.388;10.928;2023-04-03T08:12:07;3.42;;;1.58;;
17193;SDS011;8713;48.388;10.928;2023-04-03T08:13:20;2.13;;;1.48;;
17193;SDS011;8713;48.388;10.928;2023-04-03T08:14:30;3.83;;;1.88;;
17193;SDS011;8713;48.388;10.928;2023-04-03T08:15:42;3.75;;;1.92;;
17193;SDS011;8713;48.388;10.928;2023-04-03T08:16:52;6.88;;;2.00;;
17193;SDS011;8713;48.388;10.928;2023-04-03T08:18:02;2.53;;;1.40;;
17193;SDS011;8713;48.388;10.928;2023-04-03T08:19:12;4.32;;;1.80;;
17193;SDS011;8713;48.388;10.928;2023-04-03T08:20:24;3.72;;;2.13;;
17193;SDS011;8713;48.388;10.928;2023-04-03T08:21:34;3.67;;;2.00;;
17193;SDS011;8713;48.388;10.928;2023-04-03T08:22:43;4.53;;;1.80;;
17193;SDS011;8713;48.388;10.928;2023-04-03T08:23:53;2.55;;;1.42;;
17193;SDS011;8713;48.388;10.928;2023-04-03T08:25:22;3.20;;;1.60;;
17193;SDS011;8713;48.388;10.928;2023-04-03T08:26:37;3.35;;;1.75;;
17193;SDS011;8713;48.388;10.928;2023-04-03T08:27:47;5.03;;;1.75;;
17193;SDS011;8713;48.388;10.928;2023-04-03T08:28:59;3.42;;;1.63;;
17193;SDS011;8713;48.388;10.928;2023-04-03T08:30:09;2.92;;;1.58;;
17193;SDS011;8713;48.388;10.928;2023-04-03T08:31:22;2.72;;;1.60;;
17193;SDS011;8713;48.388;10.928;2023-04-03T08:32:33;4.55;;;1.60;;
17193;SDS011;8713;48.388;10.928;2023-04-03T08:33:44;2.58;;;1.60;;
17193;SDS011;8713;48.388;10.928;2023-04-03T08:34:53;3.15;;;1.65;;
17193;SDS011;8713;48.388;10.928;2023-04-03T08:36:03;4.28;;;1.90;;
17193;SDS011;8713;48.388;10.928;2023-04-03T08:37:18;3.17;;;1.75;;
17193;SDS011;8713;48.388;10.928;2023-04-03T08:38:31;4.93;;;1.80;;
17193;SDS011;8713;48.388;10.928;2023-04-03T08:39:43;3.08;;;1.52;;
17193;SDS011;8713;48.388;10.928;2023-04-03T08:40:59;2.70;;;1.50;;
17193;SDS011;8713;48.388;10.928;2023-04-03T08:43:11;2.97;;;1.58;;
17193;SDS011;8713;48.388;10.928;2023-04-03T08:45:26;4.30;;;2.38;;
17193;SDS011;8713;48.388;10.928;2023-04-03T08:49:35;4.18;;;1.60;;
17193;SDS011;8713;48.388;10.928;2023-04-03T08:50:57;2.30;;;1.40;;
17193;SDS011;8713;48.388;10.928;2023-04-03T08:52:10;3.40;;;1.65;;
17193;SDS011;8713;48.388;10.928;2023-04-03T08:53:21;3.33;;;1.83;;
17193;SDS011;8713;48.388;10.928;2023-04-03T08:54:37;2.75;;;1.65;;
17193;SDS011;8713;48.388;10.928;2023-04-03T08:56:15;3.03;;;1.42;;
17193;SDS011;8713;48.388;10.928;2023-04-03T08:57:31;4.10;;;1.70;;
17193;SDS011;8713;48.388;10.928;2023-04-03T08:58:50;2.90;;;1.73;;
17193;SDS011;8713;48.388;10.928;2023-04-03T09:01:36;3.03;;;1.80;;
17193;SDS011;8713;48.388;10.928;2023-04-03T09:02:49;4.63;;;2.10;;
17193;SDS011;8713;48.388;10.928;2023-04-03T09:04:10;2.58;;;1.50;;
17193;SDS011;8713;48.388;10.928;2023-04-03T09:06:52;5.25;;;1.90;;
17193;SDS011;8713;48.388;10.928;2023-04-03T09:10:52;3.85;;;1.70;;
17193;SDS011;8713;48.388;10.928;2023-04-03T09:12:34;4.68;;;1.40;;
17193;SDS011;8713;48.388;10.928;2023-04-03T09:13:57;5.22;;;1.60;;
17193;SDS011;8713;48.388;10.928;2023-04-03T09:15:20;3.28;;;1.63;;
17193;SDS011;8713;48.388;10.928;2023-04-03T09:16:53;5.00;;;1.75;;
17193;SDS011;8713;48.388;10.928;2023-04-03T09:18:11;6.15;;;1.77;;
17193;SDS011;8713;48.388;10.928;2023-04-03T09:22:31;9.65;;;5.60;;
17193;SDS011;8713;48.388;10.928;2023-04-03T09:23:43;23.65;;;12.93;;
17193;SDS011;8713;48.388;10.928;2023-04-03T09:25:02;7.47;;;4.47;;
17193;SDS011;8713;48.388;10.928;2023-04-03T09:26:28;4.75;;;2.58;;
17193;SDS011;8713;48.388;10.928;2023-04-03T09:27:39;11.18;;;5.75;;
17193;SDS011;8713;48.388;10.928;2023-04-03T09:28:49;6.80;;;4.00;;
17193;SDS011;8713;48.388;10.928;2023-04-03T09:29:59;9.77;;;5.05;;
17193;SDS011;8713;48.388;10.928;2023-04-03T09:31:14;10.35;;;4.35;;
17193;SDS011;8713;48.388;10.928;2023-04-03T09:33:39;13.50;;;6.10;;
17193;SDS011;8713;48.388;10.928;2023-04-03T09:34:49;7.53;;;3.38;;
17193;SDS011;8713;48.388;10.928;2023-04-03T09:35:59;8.15;;;5.35;;
17193;SDS011;8713;48.388;10.928;2023-04-03T09:37:08;2.63;;;1.60;;
17193;SDS011;8713;48.388;10.928;2023-04-03T09:38:19;5.05;;;1.63;;
17193;SDS011;8713;48.388;10.928;2023-04-03T09:39:30;3.20;;;1.80;;
17193;SDS011;8713;48.388;10.928;2023-04-03T09:40:43;5.03;;;1.70;;
17193;SDS011;8713;48.388;10.928;2023-04-03T09:42:01;5.05;;;1.70;;
17193;SDS011;8713;48.388;10.928;2023-04-03T09:44:28;5.57;;;1.60;;
17193;SDS011;8713;48.388;10.928;2023-04-03T09:45:46;2.42;;;1.80;;
17193;SDS011;8713;48.388;10.928;2023-04-03T09:46:56;3.70;;;1.77;;
17193;SDS011;8713;48.388;10.928;2023-04-03T09:49:21;3.78;;;1.70;;
17193;SDS011;8713;48.388;10.928;2023-04-03T09:50:31;2.95;;;1.75;;
17193;SDS011;8713;48.388;10.928;2023-04-03T09:51:43;4.20;;;1.90;;
17193;SDS011;8713;48.388;10.928;2023-04-03T09:52:53;3.38;;;1.80;;
17193;SDS011;8713;48.388;10.928;2023-04-03T09:54:24;3.78;;;2.00;;
17193;SDS011;8713;48.388;10.928;2023-04-03T09:55:49;2.35;;;1.60;;
17193;SDS011;8713;48.388;10.928;2023-04-03T09:57:04;2.38;;;1.50;;
17193;SDS011;8713;48.388;10.928;2023-04-03T09:58:33;4.43;;;2.10;;
17193;SDS011;8713;48.388;10.928;2023-04-03T09:59:58;3.10;;;1.90;;
17193;SDS011;8713;48.388;10.928;2023-04-03T10:01:26;2.33;;;1.83;;
17193;SDS011;8713;48.388;10.928;2023-04-03T10:02:38;3.45;;;1.77;;
17193;SDS011;8713;48.388;10.928;2023-04-03T10:04:02;3.63;;;1.50;;
17193;SDS011;8713;48.388;10.928;2023-04-03T10:05:36;4.82;;;1.67;;
17193;SDS011;8713;48.388;10.928;2023-04-03T10:06:50;7.03;;;1.80;;
17193;SDS011;8713;48.388;10.928;2023-04-03T10:10:32;4.75;;;1.50;;
17193;SDS011;8713;48.388;10.928;2023-04-03T10:13:16;4.15;;;2.00;;
17193;SDS011;8713;48.388;10.928;2023-04-03T10:14:29;4.05;;;1.50;;
17193;SDS011;8713;48.388;10.928;2023-04-03T10:15:43;3.28;;;1.55;;
17193;SDS011;8713;48.388;10.928;2023-04-03T10:20:27;2.70;;;1.50;;
17193;SDS011;8713;48.388;10.928;2023-04-03T10:27:53;4.22;;;2.20;;
17193;SDS011;8713;48.388;10.928;2023-04-03T10:31:41;2.72;;;2.17;;
17193;SDS011;8713;48.388;10.928;2023-04-03T10:33:28;4.30;;;1.70;;
17193;SDS011;8713;48.388;10.928;2023-04-03T10:34:44;1.52;;;1.40;;
17193;SDS011;8713;48.388;10.928;2023-04-03T10:38:54;4.68;;;1.63;;
17193;SDS011;8713;48.388;10.928;2023-04-03T10:43:49;3.65;;;1.80;;
17193;SDS011;8713;48.388;10.928;2023-04-03T10:45:28;5.35;;;1.98;;
17193;SDS011;8713;48.388;10.928;2023-04-03T10:47:22;2.58;;;1.70;;
17193;SDS011;8713;48.388;10.928;2023-04-03T10:51:01;3.55;;;1.80;;
17193;SDS011;8713;48.388;10.928;2023-04-03T10:55:20;3.47;;;1.75;;
17193;SDS011;8713;48.388;10.928;2023-04-03T10:57:01;5.57;;;1.83;;
17193;SDS011;8713;48.388;10.928;2023-04-03T10:58:36;2.80;;;1.80;;
17193;SDS011;8713;48.388;10.928;2023-04-03T11:00:16;3.00;;;1.58;;
17193;SDS011;8713;48.388;10.928;2023-04-03T11:01:59;5.70;;;1.70;;
17193;SDS011;8713;48.388;10.928;2023-04-03T11:03:38;2.75;;;1.40;;
17193;SDS011;8713;48.388;10.928;2023-04-03T11:05:15;5.03;;;1.33;;
17193;SDS011;8713;48.388;10.928;2023-04-03T11:07:20;3.63;;;1.67;;
17193;SDS011;8713;48.388;10.928;2023-04-03T11:09:22;3.63;;;1.40;;
17193;SDS011;8713;48.388;10.928;2023-04-03T11:10:55;2.38;;;1.33;;
17193;SDS011;8713;48.388;10.928;2023-04-03T11:12:11;4.70;;;1.95;;
17193;SDS011;8713;48.388;10.928;2023-04-03T11:15:11;2.65;;;1.60;;
17193;SDS011;8713;48.388;10.928;2023-04-03T11:16:24;2.53;;;1.48;;
17193;SDS011;8713;48.388;10.928;2023-04-03T11:17:38;3.28;;;1.60;;
17193;SDS011;8713;48.388;10.928;2023-04-03T11:18:59;3.65;;;1.40;;
17193;SDS011;8713;48.388;10.928;2023-04-03T11:20:31;4.03;;;1.63;;
17193;SDS011;8713;48.388;10.928;2023-04-03T11:21:47;3.47;;;1.40;;
17193;SDS011;8713;48.388;10.928;2023-04-03T11:24:38;5.60;;;1.90;;
17193;SDS011;8713;48.388;10.928;2023-04-03T11:26:11;4.22;;;2.03;;
17193;SDS011;8713;48.388;10.928;2023-04-03T11:27:33;4.93;;;1.48;;
17193;SDS011;8713;48.388;10.928;2023-04-03T11:29:11;2.22;;;1.58;;
17193;SDS011;8713;48.388;10.928;2023-04-03T11:30:34;2.97;;;1.48;;
17193;SDS011;8713;48.388;10.928;2023-04-03T11:35:45;3.92;;;1.83;;
17193;SDS011;8713;48.388;10.928;2023-04-03T11:37:00;2.00;;;1.20;;
17193;SDS011;8713;48.388;10.928;2023-04-03T11:38:13;2.80;;;1.50;;
17193;SDS011;8713;48.388;10.928;2023-04-03T11:39:32;3.00;;;1.48;;
17193;SDS011;8713;48.388;10.928;2023-04-03T11:40:46;4.38;;;1.77;;
17193;SDS011;8713;48.388;10.928;2023-04-03T11:41:55;5.82;;;1.88;;
17193;SDS011;8713;48.388;10.928;2023-04-03T11:43:27;2.80;;;1.80;;
17193;SDS011;8713;48.388;10.928;2023-04-03T11:44:40;4.47;;;1.95;;
17193;SDS011;8713;48.388;10.928;2023-04-03T11:46:04;5.30;;;1.50;;
17193;SDS011;8713;48.388;10.928;2023-04-03T11:48:57;2.63;;;1.40;;
17193;SDS011;8713;48.388;10.928;2023-04-03T11:50:53;4.07;;;1.70;;
17193;SDS011;8713;48.388;10.928;2023-04-03T11:51:43;5.85;;;1.55;;
17193;SDS011;8713;48.388;10.928;2023-04-03T11:52:55;3.03;;;1.70;;
17193;SDS011;8713;48.388;10.928;2023-04-03T12:02:33;5.88;;;1.77;;
17193;SDS011;8713;48.388;10.928;2023-04-03T12:08:15;5.55;;;1.55;;
17193;SDS011;8713;48.388;10.928;2023-04-03T12:15:21;2.58;;;1.60;;
17193;SDS011;8713;48.388;10.928;2023-04-03T12:17:12;3.63;;;2.67;;
17193;SDS011;8713;48.388;10.928;2023-04-03T12:19:56;3.38;;;1.58;;
17193;SDS011;8713;48.388;10.928;2023-04-03T12:21:05;2.88;;;1.65;;
17193;SDS011;8713;48.388;10.928;2023-04-03T12:22:16;1.77;;;1.35;;
17193;SDS011;8713;48.388;10.928;2023-04-03T12:23:30;2.13;;;1.40;;
17193;SDS011;8713;48.388;10.928;2023-04-03T12:24:43;4.05;;;1.67;;
17193;SDS011;8713;48.388;10.928;2023-04-03T12:26:00;5.45;;;1.50;;
17193;SDS011;8713;48.388;10.928;2023-04-03T12:27:34;2.13;;;1.30;;
17193;SDS011;8713;48.388;10.928;2023-04-03T12:28:49;2.63;;;1.40;;
17193;SDS011;8713;48.388;10.928;2023-04-03T12:30:12;3.05;;;1.20;;
17193;SDS011;8713;48.388;10.928;2023-04-03T12:31:25;2.55;;;1.15;;
17193;SDS011;8713;48.388;10.928;2023-04-03T12:32:51;1.45;;;0.80;;
17193;SDS011;8713;48.388;10.928;2023-04-03T12:34:41;3.03;;;1.10;;
17193;SDS011;8713;48.388;10.928;2023-04-03T12:38:37;3.28;;;1.10;;
17193;SDS011;8713;48.388;10.928;2023-04-03T12:46:42;2.25;;;1.20;;
17193;SDS011;8713;48.388;10.928;2023-04-03T12:47:57;3.45;;;1.52;;
17193;SDS011;8713;48.388;10.928;2023-04-03T12:50:37;1.55;;;1.27;;
17193;SDS011;8713;48.388;10.928;2023-04-03T12:51:49;2.25;;;1.33;;
17193;SDS011;8713;48.388;10.928;2023-04-03T12:53:06;3.50;;;1.58;;
17193;SDS011;8713;48.388;10.928;2023-04-03T12:54:37;2.72;;;1.23;;
17193;SDS011;8713;48.388;10.928;2023-04-03T12:55:53;2.65;;;1.13;;
17193;SDS011;8713;48.388;10.928;2023-04-03T12:57:20;2.67;;;1.13;;
17193;SDS011;8713;48.388;10.928;2023-04-03T12:58:33;2.85;;;1.17;;
17193;SDS011;8713;48.388;10.928;2023-04-03T13:00:17;3.53;;;1.40;;
17193;SDS011;8713;48.388;10.928;2023-04-03T13:01:55;4.57;;;1.23;;
17193;SDS011;8713;48.388;10.928;2023-04-03T13:03:23;4.28;;;1.40;;
17193;SDS011;8713;48.388;10.928;2023-04-03T13:04:38;2.10;;;1.30;;
17193;SDS011;8713;48.388;10.928;2023-04-03T13:05:55;2.83;;;1.30;;
17193;SDS011;8713;48.388;10.928;2023-04-03T13:07:24;5.07;;;1.15;;
17193;SDS011;8713;48.388;10.928;2023-04-03T13:08:58;2.40;;;1.25;;
17193;SDS011;8713;48.388;10.928;2023-04-03T13:10:15;2.55;;;1.05;;
17193;SDS011;8713;48.388;10.928;2023-04-03T13:11:30;3.80;;;1.25;;
17193;SDS011;8713;48.388;10.928;2023-04-03T13:12:47;3.28;;;1.05;;
17193;SDS011;8713;48.388;10.928;2023-04-03T13:14:03;4.85;;;1.30;;
17193;SDS011;8713;48.388;10.928;2023-04-03T13:15:27;4.05;;;1.30;;
17193;SDS011;8713;48.388;10.928;2023-04-03T13:16:59;3.08;;;1.10;;
17193;SDS011;8713;48.388;10.928;2023-04-03T13:18:44;1.92;;;1.02;;
17193;SDS011;8713;48.388;10.928;2023-04-03T13:20:24;2.38;;;1.30;;
17193;SDS011;8713;48.388;10.928;2023-04-03T13:21:57;3.35;;;1.20;;
17193;SDS011;8713;48.388;10.928;2023-04-03T13:23:35;1.80;;;1.20;;
17193;SDS011;8713;48.388;10.928;2023-04-03T13:24:58;2.20;;;0.90;;
17193;SDS011;8713;48.388;10.928;2023-04-03T13:26:20;2.33;;;0.95;;
17193;SDS011;8713;48.388;10.928;2023-04-03T13:27:35;2.67;;;1.10;;
17193;SDS011;8713;48.388;10.928;2023-04-03T13:28:46;1.98;;;1.05;;
17193;SDS011;8713;48.388;10.928;2023-04-03T13:30:00;4.85;;;1.27;;
17193;SDS011;8713;48.388;10.928;2023-04-03T13:32:32;3.33;;;1.17;;
17193;SDS011;8713;48.388;10.928;2023-04-03T13:33:53;2.10;;;1.10;;
17193;SDS011;8713;48.388;10.928;2023-04-03T13:35:25;2.50;;;1.15;;
17193;SDS011;8713;48.388;10.928;2023-04-03T13:36:39;3.10;;;0.95;;
17193;SDS011;8713;48.388;10.928;2023-04-03T13:37:57;1.90;;;1.08;;
17193;SDS011;8713;48.388;10.928;2023-04-03T13:40:52;2.80;;;1.10;;
17193;SDS011;8713;48.388;10.928;2023-04-03T13:42:22;4.55;;;1.30;;
17193;SDS011;8713;48.388;10.928;2023-04-03T13:43:40;2.90;;;1.17;;
17193;SDS011;8713;48.388;10.928;2023-04-03T13:46:55;3.65;;;0.90;;
17193;SDS011;8713;48.388;10.928;2023-04-03T13:48:26;3.85;;;1.15;;
17193;SDS011;8713;48.388;10.928;2023-04-03T13:50:00;1.88;;;0.98;;
17193;SDS011;8713;48.388;10.928;2023-04-03T13:51:27;3.13;;;1.05;;
17193;SDS011;8713;48.388;10.928;2023-04-03T13:52:43;1.48;;;0.73;;
17193;SDS011;8713;48.388;10.928;2023-04-03T13:54:24;3.95;;;1.25;;
17193;SDS011;8713;48.388;10.928;2023-04-03T13:55:54;2.78;;;0.90;;
17193;SDS011;8713;48.388;10.928;2023-04-03T13:57:12;1.85;;;0.95;;
17193;SDS011;8713;48.388;10.928;2023-04-03T13:58:24;2.42;;;1.10;;
17193;SDS011;8713;48.388;10.928;2023-04-03T13:59:39;3.88;;;1.20;;
17193;SDS011;8713;48.388;10.928;2023-04-03T14:00:50;1.80;;;1.10;;
17193;SDS011;8713;48.388;10.928;2023-04-03T14:02:13;2.15;;;1.00;;
17193;SDS011;8713;48.388;10.928;2023-04-03T14:03:45;2.70;;;1.25;;
17193;SDS011;8713;48.388;10.928;2023-04-03T14:05:07;3.58;;;1.00;;
17193;SDS011;8713;48.388;10.928;2023-04-03T14:06:20;1.73;;;0.90;;
17193;SDS011;8713;48.388;10.928;2023-04-03T14:07:29;2.65;;;1.10;;
17193;SDS011;8713;48.388;10.928;2023-04-03T14:08:40;2.70;;;1.08;;
17193;SDS011;8713;48.388;10.928;2023-04-03T14:09:50;2.63;;;1.00;;
17193;SDS011;8713;48.388;10.928;2023-04-03T14:11:00;1.05;;;0.80;;
17193;SDS011;8713;48.388;10.928;2023-04-03T14:13:53;2.20;;;1.10;;
17193;SDS011;8713;48.388;10.928;2023-04-03T14:15:07;3.85;;;1.10;;
17193;SDS011;8713;48.388;10.928;2023-04-03T14:16:29;2.00;;;1.10;;
17193;SDS011;8713;48.388;10.928;2023-04-03T14:17:41;4.97;;;1.23;;
17193;SDS011;8713;48.388;10.928;2023-04-03T14:18:51;4.25;;;1.45;;
17193;SDS011;8713;48.388;10.928;2023-04-03T14:20:01;3.63;;;1.17;;
17193;SDS011;8713;48.388;10.928;2023-04-03T14:21:12;2.55;;;1.20;;
17193;SDS011;8713;48.388;10.928;2023-04-03T14:22:26;3.20;;;1.10;;
17193;SDS011;8713;48.388;10.928;2023-04-03T14:23:38;2.40;;;1.42;;
17193;SDS011;8713;48.388;10.928;2023-04-03T14:24:47;1.80;;;1.10;;
17193;SDS011;8713;48.388;10.928;2023-04-03T14:25:58;3.85;;;0.88;;
17193;SDS011;8713;48.388;10.928;2023-04-03T14:27:34;1.88;;;1.15;;
17193;SDS011;8713;48.388;10.928;2023-04-03T14:28:44;3.90;;;0.90;;
17193;SDS011;8713;48.388;10.928;2023-04-03T14:29:56;1.80;;;0.90;;
17193;SDS011;8713;48.388;10.928;2023-04-03T14:31:06;2.13;;;0.90;;
17193;SDS011;8713;48.388;10.928;2023-04-03T14:32:17;3.28;;;0.80;;
17193;SDS011;8713;48.388;10.928;2023-04-03T14:33:30;2.10;;;1.00;;
17193;SDS011;8713;48.388;10.928;2023-04-03T14:34:44;1.98;;;0.90;;
17193;SDS011;8713;48.388;10.928;2023-04-03T14:35:53;2.38;;;0.90;;
17193;SDS011;8713;48.388;10.928;2023-04-03T14:37:04;2.63;;;1.00;;
17193;SDS011;8713;48.388;10.928;2023-04-03T14:38:24;3.90;;;1.20;;
17193;SDS011;8713;48.388;10.928;2023-04-03T14:39:36;2.83;;;0.90;;
17193;SDS011;8713;48.388;10.928;2023-04-03T14:40:46;3.65;;;1.27;;
17193;SDS011;8713;48.388;10.928;2023-04-03T14:41:55;1.45;;;0.80;;
17193;SDS011;8713;48.388;10.928;2023-04-03T14:43:05;1.98;;;1.17;;
17193;SDS011;8713;48.388;10.928;2023-04-03T14:44:15;2.22;;;0.90;;
17193;SDS011;8713;48.388;10.928;2023-04-03T14:45:25;3.28;;;0.80;;
17193;SDS011;8713;48.388;10.928;2023-04-03T14:46:35;1.65;;;1.00;;
17193;SDS011;8713;48.388;10.928;2023-04-03T14:47:52;1.85;;;0.90;;
17193;SDS011;8713;48.388;10.928;2023-04-03T14:49:05;5.28;;;1.17;;
17193;SDS011;8713;48.388;10.928;2023-04-03T14:50:30;2.17;;;1.05;;
17193;SDS011;8713;48.388;10.928;2023-04-03T14:51:40;2.80;;;1.10;;
17193;SDS011;8713;48.388;10.928;2023-04-03T14:52:51;2.35;;;1.35;;
17193;SDS011;8713;48.388;10.928;2023-04-03T14:54:05;2.20;;;0.80;;
17193;SDS011;8713;48.388;10.928;2023-04-03T14:55:30;2.45;;;0.88;;
17193;SDS011;8713;48.388;10.928;2023-04-03T14:56:40;3.08;;;0.90;;
17193;SDS011;8713;48.388;10.928;2023-04-03T14:57:50;2.28;;;0.80;;
17193;SDS011;8713;48.388;10.928;2023-04-03T14:59:00;1.63;;;0.77;;
17193;SDS011;8713;48.388;10.928;2023-04-03T15:00:13;2.50;;;0.82;;
17193;SDS011;8713;48.388;10.928;2023-04-03T15:01:26;1.40;;;1.00;;
17193;SDS011;8713;48.388;10.928;2023-04-03T15:02:37;2.42;;;0.98;;
17193;SDS011;8713;48.388;10.928;2023-04-03T15:03:47;2.25;;;0.80;;
17193;SDS011;8713;48.388;10.928;2023-04-03T15:04:57;2.17;;;1.02;;
17193;SDS011;8713;48.388;10.928;2023-04-03T15:06:08;1.58;;;1.00;;
17193;SDS011;8713;48.388;10.928;2023-04-03T15:07:19;1.45;;;0.90;;
17193;SDS011;8713;48.388;10.928;2023-04-03T15:08:29;1.88;;;1.10;;
17193;SDS011;8713;48.388;10.928;2023-04-03T15:09:39;2.08;;;0.80;;
17193;SDS011;8713;48.388;10.928;2023-04-03T15:10:49;3.40;;;0.90;;
17193;SDS011;8713;48.388;10.928;2023-04-03T15:12:01;2.15;;;1.08;;
17193;SDS011;8713;48.388;10.928;2023-04-03T15:13:11;2.60;;;0.75;;
17193;SDS011;8713;48.388;10.928;2023-04-03T15:14:21;3.13;;;1.10;;
17193;SDS011;8713;48.388;10.928;2023-04-03T15:15:30;2.13;;;0.90;;
17193;SDS011;8713;48.388;10.928;2023-04-03T15:16:39;1.23;;;0.70;;
17193;SDS011;8713;48.388;10.928;2023-04-03T15:17:53;1.35;;;0.60;;
17193;SDS011;8713;48.388;10.928;2023-04-03T15:19:04;1.48;;;0.90;;
17193;SDS011;8713;48.388;10.928;2023-04-03T15:20:18;1.42;;;0.80;;
17193;SDS011;8713;48.388;10.928;2023-04-03T15:21:29;3.17;;;0.90;;
17193;SDS011;8713;48.388;10.928;2023-04-03T15:22:38;4.70;;;1.00;;
17193;SDS011;8713;48.388;10.928;2023-04-03T15:23:48;2.05;;;0.75;;
17193;SDS011;8713;48.388;10.928;2023-04-03T15:24:57;1.65;;;0.90;;
17193;SDS011;8713;48.388;10.928;2023-04-03T15:26:07;1.83;;;0.88;;
17193;SDS011;8713;48.388;10.928;2023-04-03T15:27:16;3.10;;;0.98;;
17193;SDS011;8713;48.388;10.928;2023-04-03T15:28:28;1.58;;;0.80;;
17193;SDS011;8713;48.388;10.928;2023-04-03T15:29:42;2.10;;;0.80;;
17193;SDS011;8713;48.388;10.928;2023-04-03T15:30:52;0.95;;;0.77;;
17193;SDS011;8713;48.388;10.928;2023-04-03T15:32:02;0.95;;;0.70;;
17193;SDS011;8713;48.388;10.928;2023-04-03T15:33:11;3.08;;;0.90;;
17193;SDS011;8713;48.388;10.928;2023-04-03T15:34:21;2.28;;;1.00;;
17193;SDS011;8713;48.388;10.928;2023-04-03T15:35:30;2.35;;;0.85;;
17193;SDS011;8713;48.388;10.928;2023-04-03T15:36:40;4.18;;;1.00;;
17193;SDS011;8713;48.388;10.928;2023-04-03T15:37:49;1.35;;;0.70;;
17193;SDS011;8713;48.388;10.928;2023-04-03T15:39:00;1.30;;;0.80;;
17193;SDS011;8713;48.388;10.928;2023-04-03T15:40:09;4.13;;;1.15;;
17193;SDS011;8713;48.388;10.928;2023-04-03T15:41:19;2.05;;;0.82;;
17193;SDS011;8713;48.388;10.928;2023-04-03T15:42:30;2.38;;;0.88;;
17193;SDS011;8713;48.388;10.928;2023-04-03T15:43:39;1.70;;;0.90;;
17193;SDS011;8713;48.388;10.928;2023-04-03T15:44:49;1.83;;;0.90;;
17193;SDS011;8713;48.388;10.928;2023-04-03T15:45:59;4.07;;;1.23;;
17193;SDS011;8713;48.388;10.928;2023-04-03T15:47:08;1.52;;;0.90;;
17193;SDS011;8713;48.388;10.928;2023-04-03T15:48:18;2.40;;;1.00;;
17193;SDS011;8713;48.388;10.928;2023-04-03T15:49:28;2.60;;;0.98;;
17193;SDS011;8713;48.388;10.928;2023-04-03T15:50:37;2.03;;;0.80;;
17193;SDS011;8713;48.388;10.928;2023-04-03T15:51:47;1.98;;;0.70;;
17193;SDS011;8713;48.388;10.928;2023-04-03T15:52:57;1.60;;;0.90;;
17193;SDS011;8713;48.388;10.928;2023-04-03T15:54:06;2.30;;;0.93;;
17193;SDS011;8713;48.388;10.928;2023-04-03T15:55:16;1.60;;;0.82;;
17193;SDS011;8713;48.388;10.928;2023-04-03T15:56:25;3.72;;;1.00;;
17193;SDS011;8713;48.388;10.928;2023-04-03T15:57:35;1.42;;;0.60;;
17193;SDS011;8713;48.388;10.928;2023-04-03T15:58:44;4.80;;;0.95;;
17193;SDS011;8713;48.388;10.928;2023-04-03T15:59:53;1.80;;;1.00;;
17193;SDS011;8713;48.388;10.928;2023-04-03T16:01:03;3.78;;;1.02;;
17193;SDS011;8713;48.388;10.928;2023-04-03T16:02:12;2.08;;;1.00;;
17193;SDS011;8713;48.388;10.928;2023-04-03T16:03:22;2.72;;;1.00;;
17193;SDS011;8713;48.388;10.928;2023-04-03T16:04:33;2.03;;;0.82;;
17193;SDS011;8713;48.388;10.928;2023-04-03T16:05:42;1.40;;;0.75;;
17193;SDS011;8713;48.388;10.928;2023-04-03T16:06:52;1.17;;;0.70;;
17193;SDS011;8713;48.388;10.928;2023-04-03T16:08:01;2.88;;;1.00;;
17193;SDS011;8713;48.388;10.928;2023-04-03T16:09:11;1.55;;;1.00;;
17193;SDS011;8713;48.388;10.928;2023-04-03T16:10:20;2.35;;;1.05;;
17193;SDS011;8713;48.388;10.928;2023-04-03T16:11:30;3.47;;;0.85;;
17193;SDS011;8713;48.388;10.928;2023-04-03T16:12:39;1.60;;;0.68;;
17193;SDS011;8713;48.388;10.928;2023-04-03T16:13:48;2.38;;;0.75;;
17193;SDS011;8713;48.388;10.928;2023-04-03T16:14:58;1.17;;;0.70;;
17193;SDS011;8713;48.388;10.928;2023-04-03T16:16:07;1.23;;;0.70;;